Alpine, Kentucky
Current Conditions -  °F | °C
As of 4:55 PM on Monday 22 Dec 2014 (Local Time) from KSME Reporting Station
Light Rain Light Rain  
Wind Chill: 12°   Ceiling: 6500
Heat Index: 12°   Visibility: 10mi
Dew Point:   Wind: 5mph
Humidity: 67%   Direction: 170°S
Pressure: 29.82"   Gusts: NA
Location:  36.938°N, 84.5342°W
Report Text: KSME 222155Z AUTO 17004KT 10SM -RA SCT036 BKN065 OVC090 12/06 A2982 RMK AO2
Loading
Personal Weather Stations






























Interactive Weather Map New forecast layout! Learn more

10-Day Weather Forecast

Advertisements
Track Severe Weather on mobile